Time;durP1;ratioP1;P1;durP2;ratioP2;P2;SDS_P1;SDS_P2;PMS_P1;PMS_P2;Temp;Humidity;BMP_temperature;BMP_pressure;BME280_temperature;BME280_humidity;BME280_pressure;Samples;Min_cycle;Max_cycle;Signal;HPM_P1;HPM_P2
2022/08/26 00:00:09;;;;;;;;;;;15.90;99.90;;;;;;5048087;28;20401;-68
2022/08/26 00:02:35;;;;;;;;;;;15.90;99.90;;;;;;5049660;28;19919;-67
2022/08/26 00:05:01;;;;;;;;;;;15.80;99.90;;;;;;5049231;28;20209;-67
2022/08/26 00:07:26;;;;;;;;;;;15.90;99.90;;;;;;5055485;28;19916;-67
2022/08/26 00:09:52;;;;;;;;;;;16.00;99.90;;;;;;5057517;28;19925;-67
2022/08/26 00:12:18;;;;;;;;;;;15.90;99.90;;;;;;5052848;28;20322;-66
2022/08/26 00:14:43;;;;;;;;;;;15.90;99.90;;;;;;5058180;28;19921;-67
2022/08/26 00:17:09;;;;;;;;;;;15.80;99.90;;;;;;5060935;28;19943;-67
2022/08/26 00:19:34;;;;;;;;;;;15.80;99.90;;;;;;5053162;28;19912;-68
2022/08/26 00:22:00;;;;;;;;;;;15.70;99.90;;;;;;5059479;28;19919;-66
2022/08/26 00:24:25;;;;;;;;;;;15.70;99.90;;;;;;5050896;28;19965;-66
2022/08/26 00:26:51;;;;;;;;;;;15.60;99.90;;;;;;5072314;28;19940;-67
2022/08/26 00:29:17;;;;;;;;;;;15.70;99.90;;;;;;5057173;28;19912;-66
2022/08/26 00:31:42;;;;;;;;;;;15.70;99.90;;;;;;5050508;28;19924;-68
2022/08/26 00:34:09;;;;;;;;;;;15.70;99.90;;;;;;5053017;28;20035;-68
2022/08/26 00:36:34;;;;;;;;;;;15.70;99.90;;;;;;5054132;28;19957;-67
2022/08/26 00:39:00;;;;;;;;;;;15.70;99.90;;;;;;5063098;28;19916;-68
2022/08/26 00:41:25;;;;;;;;;;;15.60;99.90;;;;;;5059917;28;20338;-68
2022/08/26 00:43:51;;;;;;;;;;;15.60;99.90;;;;;;5061023;28;19920;-66
2022/08/26 00:46:27;;;;;;;;;;;15.60;99.90;;;;;;5059121;28;19916;-66
2022/08/26 00:48:58;;;;;;;;;;;15.70;99.90;;;;;;5053978;28;19963;-66
2022/08/26 00:51:26;;;;;;;;;;;15.60;99.90;;;;;;5049528;28;19925;-67
2022/08/26 00:53:59;;;;;;;;;;;15.60;99.90;;;;;;5051503;28;19923;-67
2022/08/26 00:56:34;;;;;;;;;;;15.60;99.90;;;;;;5054722;28;19935;-67
2022/08/26 00:59:01;;;;;;;;;;;15.60;99.90;;;;;;5048157;28;19912;-67
2022/08/26 01:01:27;;;;;;;;;;;15.60;99.90;;;;;;5057563;28;21142;-67
2022/08/26 01:03:54;;;;;;;;;;;15.50;99.90;;;;;;5060617;28;20283;-66
2022/08/26 01:06:20;;;;;;;;;;;15.50;99.90;;;;;;5055549;28;19920;-67
2022/08/26 01:08:45;;;;;;;;;;;15.40;99.90;;;;;;5056155;28;19966;-67
2022/08/26 01:11:11;;;;;;;;;;;15.40;99.90;;;;;;5057762;28;19942;-68
2022/08/26 01:13:37;;;;;;;;;;;15.40;99.90;;;;;;5054745;28;20223;-66
2022/08/26 01:16:05;;;;;;;;;;;15.40;99.90;;;;;;5056307;28;19990;-68
2022/08/26 01:18:30;;;;;;;;;;;15.40;99.90;;;;;;5057703;28;19913;-66
2022/08/26 01:21:15;;;;;;;;;;;15.30;99.90;;;;;;5056189;28;20311;-67
2022/08/26 01:23:42;;;;;;;;;;;15.30;99.90;;;;;;5070815;28;19958;-67
2022/08/26 01:26:09;;;;;;;;;;;15.20;99.90;;;;;;5071161;28;20351;-66
2022/08/26 01:28:35;;;;;;;;;;;15.20;99.90;;;;;;5069124;28;19913;-67
2022/08/26 01:31:02;;;;;;;;;;;15.20;99.90;;;;;;5060018;28;19925;-66
2022/08/26 01:33:32;;;;;;;;;;;15.20;99.90;;;;;;5054404;28;19917;-66
2022/08/26 01:35:57;;;;;;;;;;;15.10;99.90;;;;;;5060305;28;20443;-67
2022/08/26 01:38:23;;;;;;;;;;;15.10;99.90;;;;;;5073945;28;19921;-66
2022/08/26 01:40:49;;;;;;;;;;;15.10;99.90;;;;;;5062715;28;19927;-67
2022/08/26 01:43:20;;;;;;;;;;;15.10;99.90;;;;;;5059997;28;19986;-68
2022/08/26 01:45:47;;;;;;;;;;;15.00;99.90;;;;;;5054551;28;20302;-69
2022/08/26 01:48:18;;;;;;;;;;;14.90;99.90;;;;;;5059623;28;20775;-69
2022/08/26 01:50:44;;;;;;;;;;;14.90;99.90;;;;;;5053511;28;19944;-68
2022/08/26 01:53:11;;;;;;;;;;;14.90;99.90;;;;;;5067494;28;19964;-66
2022/08/26 01:55:39;;;;;;;;;;;14.90;99.90;;;;;;5065910;28;21753;-67
2022/08/26 01:58:08;;;;;;;;;;;14.90;99.90;;;;;;5062523;28;19927;-66
2022/08/26 02:00:34;;;;;;;;;;;14.80;99.90;;;;;;5060611;28;19912;-66
2022/08/26 02:03:20;;;;;;;;;;;14.80;99.90;;;;;;5063035;28;19939;-65
2022/08/26 02:05:52;;;;;;;;;;;14.80;99.90;;;;;;5059565;28;20321;-67
2022/08/26 02:08:19;;;;;;;;;;;14.80;99.90;;;;;;5053944;28;19965;-68
2022/08/26 02:10:44;;;;;;;;;;;14.90;99.90;;;;;;5056174;28;20528;-66
2022/08/26 02:13:10;;;;;;;;;;;14.90;99.90;;;;;;5056324;28;19936;-67
2022/08/26 02:15:36;;;;;;;;;;;14.80;99.90;;;;;;5059388;28;19935;-66
2022/08/26 02:18:03;;;;;;;;;;;14.80;99.90;;;;;;5058289;28;19964;-67
2022/08/26 02:20:28;;;;;;;;;;;14.70;99.90;;;;;;5053563;28;19912;-67
2022/08/26 02:22:54;;;;;;;;;;;14.70;99.90;;;;;;5056159;28;19943;-67
2022/08/26 02:25:38;;;;;;;;;;;14.70;99.90;;;;;;5059441;28;20260;-67
2022/08/26 02:28:04;;;;;;;;;;;14.70;99.90;;;;;;5068092;28;19916;-69
2022/08/26 02:30:31;;;;;;;;;;;14.60;99.90;;;;;;5066310;28;20001;-68
2022/08/26 02:33:02;;;;;;;;;;;14.50;99.90;;;;;;5086462;28;19928;-68
2022/08/26 02:35:29;;;;;;;;;;;14.50;99.90;;;;;;5062788;28;19975;-68
2022/08/26 02:37:54;;;;;;;;;;;14.50;99.90;;;;;;5059216;28;19913;-70
2022/08/26 02:40:22;;;;;;;;;;;14.50;99.90;;;;;;5058739;28;19912;-69
2022/08/26 02:42:47;;;;;;;;;;;14.50;99.90;;;;;;5061700;28;19917;-68
2022/08/26 02:45:13;;;;;;;;;;;14.60;99.90;;;;;;5077943;28;19912;-68
2022/08/26 02:47:38;;;;;;;;;;;14.60;99.90;;;;;;5059611;28;20370;-68
2022/08/26 02:50:05;;;;;;;;;;;14.60;99.90;;;;;;5061456;28;19962;-67
2022/08/26 02:52:30;;;;;;;;;;;14.50;99.90;;;;;;5052591;28;20386;-66
2022/08/26 02:54:56;;;;;;;;;;;14.50;99.90;;;;;;5059628;28;20128;-69
2022/08/26 02:57:21;;;;;;;;;;;14.40;99.90;;;;;;5056642;28;19912;-68
2022/08/26 02:59:47;;;;;;;;;;;14.40;99.90;;;;;;5057382;28;19912;-66
2022/08/26 03:02:12;;;;;;;;;;;14.40;99.90;;;;;;5058589;28;19955;-65
2022/08/26 03:04:38;;;;;;;;;;;14.40;99.90;;;;;;5056199;28;19916;-66
2022/08/26 03:07:04;;;;;;;;;;;14.30;99.90;;;;;;5060785;28;20406;-67
2022/08/26 03:09:31;;;;;;;;;;;14.30;99.90;;;;;;5061620;28;20022;-67
2022/08/26 03:11:57;;;;;;;;;;;14.30;99.90;;;;;;5064487;28;20015;-68
2022/08/26 03:14:23;;;;;;;;;;;14.40;99.90;;;;;;5064185;28;19999;-68
2022/08/26 03:16:50;;;;;;;;;;;14.30;99.90;;;;;;5063912;28;19956;-67
2022/08/26 03:19:17;;;;;;;;;;;14.20;99.90;;;;;;5066677;28;19969;-68
2022/08/26 03:21:42;;;;;;;;;;;14.20;99.90;;;;;;5065378;28;19912;-69
2022/08/26 03:24:11;;;;;;;;;;;14.20;99.90;;;;;;5070667;28;19920;-68
2022/08/26 03:26:37;;;;;;;;;;;14.10;99.90;;;;;;5067927;28;19919;-68
2022/08/26 03:31:47;;;;;;;;;;;14.10;99.90;;;;;;5069532;28;20579;-68
2022/08/26 03:34:13;;;;;;;;;;;14.10;99.90;;;;;;5068097;28;19916;-67
2022/08/26 03:36:39;;;;;;;;;;;14.10;99.90;;;;;;5071893;28;19920;-66
2022/08/26 03:39:06;;;;;;;;;;;14.10;99.90;;;;;;5067535;28;19920;-66
2022/08/26 03:41:32;;;;;;;;;;;14.10;99.90;;;;;;5074351;28;19913;-67
2022/08/26 03:43:58;;;;;;;;;;;14.00;99.90;;;;;;5080626;28;19916;-66
2022/08/26 03:46:23;;;;;;;;;;;14.00;99.90;;;;;;5080576;28;19916;-66
2022/08/26 03:48:49;;;;;;;;;;;14.10;99.90;;;;;;5073633;28;19912;-67
2022/08/26 03:51:16;;;;;;;;;;;14.00;99.90;;;;;;5077840;28;19994;-66
2022/08/26 03:53:42;;;;;;;;;;;14.00;99.90;;;;;;5069574;28;20346;-67
2022/08/26 03:56:08;;;;;;;;;;;13.90;99.90;;;;;;5060009;28;19913;-65
2022/08/26 03:58:34;;;;;;;;;;;13.90;99.90;;;;;;5062806;28;19948;-67
2022/08/26 04:00:59;;;;;;;;;;;13.90;99.90;;;;;;5065062;28;19916;-67
2022/08/26 04:06:10;;;;;;;;;;;13.80;99.90;;;;;;5058165;28;19935;-67
2022/08/26 04:08:36;;;;;;;;;;;13.80;99.90;;;;;;5064177;28;19931;-65
2022/08/26 04:11:02;;;;;;;;;;;13.80;99.90;;;;;;5070731;28;19992;-65
2022/08/26 04:13:28;;;;;;;;;;;13.90;99.90;;;;;;5077819;28;19913;-65
2022/08/26 04:15:54;;;;;;;;;;;13.90;99.90;;;;;;5082617;28;19927;-66
2022/08/26 04:18:19;;;;;;;;;;;13.90;99.90;;;;;;5083343;28;19950;-65
2022/08/26 04:20:46;;;;;;;;;;;13.90;99.90;;;;;;5078033;28;19916;-66
2022/08/26 04:23:12;;;;;;;;;;;13.80;99.90;;;;;;5063801;28;19924;-66
2022/08/26 04:25:38;;;;;;;;;;;13.90;99.90;;;;;;5060424;28;19913;-67
2022/08/26 04:28:04;;;;;;;;;;;13.70;99.90;;;;;;5063399;28;20003;-66
2022/08/26 04:30:29;;;;;;;;;;;13.40;99.90;;;;;;5064893;28;19970;-67
2022/08/26 04:32:55;;;;;;;;;;;13.20;99.90;;;;;;5062383;28;19994;-67
2022/08/26 04:35:20;;;;;;;;;;;12.90;99.90;;;;;;5064074;28;19919;-67
2022/08/26 04:37:47;;;;;;;;;;;12.80;99.90;;;;;;5064126;28;19927;-66
2022/08/26 04:40:13;;;;;;;;;;;12.70;99.90;;;;;;5073989;28;19920;-66
2022/08/26 04:42:38;;;;;;;;;;;12.60;99.90;;;;;;5059675;28;20305;-67
2022/08/26 04:45:04;;;;;;;;;;;12.60;99.90;;;;;;5061018;28;19998;-67
2022/08/26 04:47:30;;;;;;;;;;;12.40;99.90;;;;;;5057093;28;19916;-67
2022/08/26 04:49:56;;;;;;;;;;;12.40;99.90;;;;;;5062447;28;19920;-66
2022/08/26 04:52:22;;;;;;;;;;;12.40;99.90;;;;;;5067788;28;19977;-66
2022/08/26 04:54:48;;;;;;;;;;;12.40;99.90;;;;;;5060216;28;19942;-67
2022/08/26 04:57:14;;;;;;;;;;;12.30;99.90;;;;;;5058130;28;20355;-67
2022/08/26 04:59:39;;;;;;;;;;;12.20;99.90;;;;;;5061954;28;19943;-67
2022/08/26 05:02:05;;;;;;;;;;;12.20;99.90;;;;;;5060848;28;19921;-67
2022/08/26 05:04:31;;;;;;;;;;;12.20;99.90;;;;;;5059824;28;19912;-66
2022/08/26 05:06:57;;;;;;;;;;;12.10;99.90;;;;;;5063100;28;19920;-67
2022/08/26 05:09:22;;;;;;;;;;;12.10;99.90;;;;;;5062124;28;19913;-67
2022/08/26 05:11:48;;;;;;;;;;;12.10;99.90;;;;;;5062121;28;19921;-67
2022/08/26 05:14:14;;;;;;;;;;;12.10;99.90;;;;;;5055399;28;20003;-66
2022/08/26 05:16:39;;;;;;;;;;;12.00;99.90;;;;;;5065016;28;19980;-67
2022/08/26 05:19:05;;;;;;;;;;;12.00;99.90;;;;;;5063947;28;20322;-66
2022/08/26 05:21:31;;;;;;;;;;;12.00;99.90;;;;;;5061526;28;19924;-67
2022/08/26 05:23:57;;;;;;;;;;;12.00;99.90;;;;;;5061246;28;19935;-65
2022/08/26 05:26:25;;;;;;;;;;;12.00;99.90;;;;;;5065773;28;19920;-66
2022/08/26 05:28:51;;;;;;;;;;;12.00;99.90;;;;;;5063034;28;19919;-66
2022/08/26 05:31:18;;;;;;;;;;;12.00;99.90;;;;;;5063461;28;19929;-67
2022/08/26 05:33:45;;;;;;;;;;;12.00;99.90;;;;;;5060491;28;19970;-67
2022/08/26 05:36:12;;;;;;;;;;;12.00;99.90;;;;;;5063313;28;19976;-67
2022/08/26 05:38:38;;;;;;;;;;;11.90;99.90;;;;;;5064399;28;19924;-66
2022/08/26 05:41:12;;;;;;;;;;;12.00;99.90;;;;;;5062929;28;19921;-67
2022/08/26 05:43:38;;;;;;;;;;;11.90;99.90;;;;;;5061590;28;20491;-67
2022/08/26 05:46:04;;;;;;;;;;;11.90;99.90;;;;;;5061842;28;19916;-67
2022/08/26 05:48:30;;;;;;;;;;;11.80;99.90;;;;;;5062920;28;19931;-66
2022/08/26 05:50:55;;;;;;;;;;;11.90;99.90;;;;;;5064349;28;19929;-67
2022/08/26 05:53:22;;;;;;;;;;;11.90;99.90;;;;;;5063884;28;19935;-66
2022/08/26 05:55:51;;;;;;;;;;;11.90;99.90;;;;;;5064452;28;19920;-67
2022/08/26 05:58:21;;;;;;;;;;;11.90;99.90;;;;;;5062270;28;19943;-67
2022/08/26 06:01:07;;;;;;;;;;;11.90;99.90;;;;;;5059161;28;19982;-67
2022/08/26 06:03:34;;;;;;;;;;;11.90;99.90;;;;;;5065212;28;20521;-68
2022/08/26 06:06:07;;;;;;;;;;;11.90;99.90;;;;;;5063264;28;20322;-67
2022/08/26 06:08:33;;;;;;;;;;;11.90;99.90;;;;;;5063830;28;19912;-67
2022/08/26 06:11:00;;;;;;;;;;;11.90;99.90;;;;;;5064457;28;19929;-67
2022/08/26 06:13:26;;;;;;;;;;;11.90;99.90;;;;;;5061434;28;19912;-67
2022/08/26 06:15:52;;;;;;;;;;;12.00;99.90;;;;;;5065900;28;19912;-67
2022/08/26 06:18:22;;;;;;;;;;;12.00;99.90;;;;;;5058087;28;19951;-66
2022/08/26 06:20:48;;;;;;;;;;;12.00;99.90;;;;;;5061414;28;19959;-67
2022/08/26 06:26:00;;;;;;;;;;;12.20;99.90;;;;;;5060221;28;19918;-67
2022/08/26 06:28:26;;;;;;;;;;;12.20;99.90;;;;;;5061396;28;20010;-67
2022/08/26 06:30:52;;;;;;;;;;;12.30;99.90;;;;;;5062808;28;20401;-67
2022/08/26 06:33:18;;;;;;;;;;;12.40;99.90;;;;;;5063319;28;19920;-67
2022/08/26 06:35:45;;;;;;;;;;;12.50;99.90;;;;;;5063366;28;19921;-67
2022/08/26 06:38:12;;;;;;;;;;;12.70;99.90;;;;;;5062727;28;19912;-67
2022/08/26 06:40:56;;;;;;;;;;;12.80;99.90;;;;;;5059140;28;19987;-67
2022/08/26 06:43:23;;;;;;;;;;;12.80;99.90;;;;;;5062837;28;19923;-66
2022/08/26 06:45:49;;;;;;;;;;;12.90;99.90;;;;;;5060455;28;20286;-67
2022/08/26 06:48:18;;;;;;;;;;;12.90;99.90;;;;;;5061295;28;19912;-67
2022/08/26 06:50:44;;;;;;;;;;;13.10;99.90;;;;;;5065904;28;19920;-67
2022/08/26 06:53:12;;;;;;;;;;;13.30;99.90;;;;;;5062696;28;19928;-67
2022/08/26 06:55:41;;;;;;;;;;;13.30;99.90;;;;;;5064546;28;19912;-67
2022/08/26 06:58:08;;;;;;;;;;;13.30;99.90;;;;;;5062360;28;20343;-67
2022/08/26 07:00:35;;;;;;;;;;;13.40;99.90;;;;;;5060871;28;19921;-68
2022/08/26 07:03:01;;;;;;;;;;;13.50;99.90;;;;;;5058590;28;19923;-67
2022/08/26 07:05:26;;;;;;;;;;;13.70;99.90;;;;;;5058327;28;19912;-66
2022/08/26 07:07:52;;;;;;;;;;;14.00;99.90;;;;;;5065739;28;20015;-68
2022/08/26 07:10:17;;;;;;;;;;;14.20;99.90;;;;;;5060003;28;20320;-67
2022/08/26 07:12:43;;;;;;;;;;;14.40;99.90;;;;;;5068293;28;19917;-67
2022/08/26 07:15:09;;;;;;;;;;;14.50;99.90;;;;;;5062203;28;19912;-67
2022/08/26 07:17:35;;;;;;;;;;;14.70;99.90;;;;;;5067677;28;19916;-67
2022/08/26 07:20:02;;;;;;;;;;;14.80;99.90;;;;;;5068252;28;19920;-68
2022/08/26 07:22:27;;;;;;;;;;;15.00;99.90;;;;;;5068003;28;19912;-68
2022/08/26 07:24:53;;;;;;;;;;;15.20;99.90;;;;;;5066009;28;19959;-68
2022/08/26 07:27:19;;;;;;;;;;;15.30;99.90;;;;;;5058102;28;20015;-67
2022/08/26 07:29:45;;;;;;;;;;;15.50;99.90;;;;;;5066367;28;19928;-68
2022/08/26 07:32:12;;;;;;;;;;;15.60;99.90;;;;;;5075451;28;19916;-68
2022/08/26 07:34:38;;;;;;;;;;;15.70;99.90;;;;;;5073040;28;19971;-68
2022/08/26 07:37:03;;;;;;;;;;;15.90;99.90;;;;;;5058193;28;19916;-70
2022/08/26 07:39:29;;;;;;;;;;;16.00;99.90;;;;;;5057093;28;19966;-68
2022/08/26 07:41:55;;;;;;;;;;;16.20;99.90;;;;;;5062943;28;19928;-68
2022/08/26 07:44:21;;;;;;;;;;;16.30;99.90;;;;;;5066899;28;19916;-69
2022/08/26 07:46:50;;;;;;;;;;;16.40;99.90;;;;;;5060085;28;19974;-69
2022/08/26 07:49:16;;;;;;;;;;;16.40;99.90;;;;;;5066295;28;19904;-67
2022/08/26 07:51:42;;;;;;;;;;;16.50;99.90;;;;;;5063376;28;20359;-66
2022/08/26 07:54:07;;;;;;;;;;;16.40;99.90;;;;;;5060710;28;19920;-67
2022/08/26 07:56:33;;;;;;;;;;;16.30;99.90;;;;;;5079972;28;19922;-67
2022/08/26 07:58:59;;;;;;;;;;;16.50;99.90;;;;;;5062840;28;19920;-66
2022/08/26 08:01:25;;;;;;;;;;;16.60;99.90;;;;;;5061465;28;20291;-66
2022/08/26 08:03:52;;;;;;;;;;;16.70;99.90;;;;;;5059908;28;19917;-69
2022/08/26 08:06:18;;;;;;;;;;;16.90;99.90;;;;;;5082777;28;20085;-68
2022/08/26 08:08:44;;;;;;;;;;;17.20;99.90;;;;;;5062241;28;20363;-66
2022/08/26 08:11:10;;;;;;;;;;;17.20;99.90;;;;;;5059463;28;19928;-67
2022/08/26 08:13:36;;;;;;;;;;;17.20;99.90;;;;;;5064130;28;19920;-68
2022/08/26 08:16:02;;;;;;;;;;;17.30;99.90;;;;;;5056918;28;19913;-67
2022/08/26 08:18:28;;;;;;;;;;;17.30;99.90;;;;;;5067249;28;19981;-67
2022/08/26 08:20:54;;;;;;;;;;;17.30;99.90;;;;;;5065324;28;20375;-68
2022/08/26 08:23:19;;;;;;;;;;;17.40;99.90;;;;;;5063270;28;19978;-68
2022/08/26 08:25:45;;;;;;;;;;;17.60;99.90;;;;;;5063731;28;19913;-67
2022/08/26 08:28:10;;;;;;;;;;;17.70;99.90;;;;;;5065740;28;19912;-68
2022/08/26 08:30:39;;;;;;;;;;;17.60;99.90;;;;;;5062483;28;20439;-68
2022/08/26 08:33:05;;;;;;;;;;;17.80;99.90;;;;;;5055939;28;19966;-66
2022/08/26 08:35:31;;;;;;;;;;;18.00;99.90;;;;;;5059246;28;19924;-67
2022/08/26 08:37:57;;;;;;;;;;;18.10;99.90;;;;;;5061225;28;19963;-68
2022/08/26 08:40:23;;;;;;;;;;;18.20;99.90;;;;;;5056230;28;19969;-67
2022/08/26 08:43:03;;;;;;;;;;;18.10;99.90;;;;;;5061534;28;19931;-69
2022/08/26 08:45:41;;;;;;;;;;;18.20;99.90;;;;;;5056555;28;20381;-68
2022/08/26 08:48:10;;;;;;;;;;;18.40;99.90;;;;;;5052419;28;19980;-71
2022/08/26 08:50:41;;;;;;;;;;;18.30;99.90;;;;;;5057233;28;20049;-70
2022/08/26 08:53:10;;;;;;;;;;;18.50;99.00;;;;;;5057725;28;19919;-69
2022/08/26 08:55:55;;;;;;;;;;;18.70;99.90;;;;;;5059494;28;20359;-69
2022/08/26 08:58:23;;;;;;;;;;;18.60;96.70;;;;;;5056716;28;19916;-70
2022/08/26 09:01:10;;;;;;;;;;;18.70;97.80;;;;;;5051921;28;19919;-68
2022/08/26 09:03:45;;;;;;;;;;;18.70;96.60;;;;;;5057953;28;19916;-67
2022/08/26 09:06:16;;;;;;;;;;;18.70;94.90;;;;;;5061075;28;19966;-70
2022/08/26 09:08:42;;;;;;;;;;;18.80;95.80;;;;;;5056972;28;20007;-70
2022/08/26 09:11:08;;;;;;;;;;;18.90;97.60;;;;;;5061068;28;20020;-69
2022/08/26 09:13:34;;;;;;;;;;;18.80;98.20;;;;;;5063865;28;20381;-69
2022/08/26 09:16:12;;;;;;;;;;;18.90;98.60;;;;;;5064212;28;19931;-69
2022/08/26 09:18:54;;;;;;;;;;;18.90;98.60;;;;;;5065106;28;19919;-69
2022/08/26 09:21:22;;;;;;;;;;;19.00;99.50;;;;;;5065370;28;19966;-69
2022/08/26 09:23:49;;;;;;;;;;;19.10;98.20;;;;;;5062367;28;19942;-69
2022/08/26 09:26:39;;;;;;;;;;;19.10;96.70;;;;;;5065445;28;20279;-71
2022/08/26 09:29:09;;;;;;;;;;;19.20;96.70;;;;;;5060571;28;20024;-70
2022/08/26 09:31:37;;;;;;;;;;;19.40;98.90;;;;;;5068127;28;19931;-71
2022/08/26 09:34:17;;;;;;;;;;;19.70;96.30;;;;;;5057280;28;19956;-69
2022/08/26 09:36:44;;;;;;;;;;;19.80;95.50;;;;;;5057341;28;19920;-68
2022/08/26 09:39:22;;;;;;;;;;;20.00;97.30;;;;;;5055882;28;19921;-68
2022/08/26 09:42:08;;;;;;;;;;;20.20;95.90;;;;;;5056743;28;19928;-69
2022/08/26 09:44:35;;;;;;;;;;;20.40;93.30;;;;;;5055802;28;19944;-70
2022/08/26 09:47:02;;;;;;;;;;;20.30;92.50;;;;;;5053155;28;19921;-70
2022/08/26 09:49:35;;;;;;;;;;;20.30;92.20;;;;;;5050914;28;19913;-70
2022/08/26 09:52:22;;;;;;;;;;;20.30;91.10;;;;;;5054572;28;19998;-68
2022/08/26 09:55:00;;;;;;;;;;;20.20;91.60;;;;;;5050299;28;19938;-69
2022/08/26 09:57:28;;;;;;;;;;;20.40;91.20;;;;;;5057922;28;19925;-69
2022/08/26 09:59:53;;;;;;;;;;;20.60;90.90;;;;;;5061487;28;19940;-68
2022/08/26 10:02:26;;;;;;;;;;;20.70;90.20;;;;;;5048270;28;19956;-67
2022/08/26 10:04:55;;;;;;;;;;;20.80;90.00;;;;;;5069626;28;20031;-68
2022/08/26 10:07:39;;;;;;;;;;;21.00;89.40;;;;;;5056439;28;20004;-69
2022/08/26 10:10:25;;;;;;;;;;;21.30;87.50;;;;;;5058733;28;19923;-68
2022/08/26 10:12:58;;;;;;;;;;;21.30;86.70;;;;;;5054792;28;19917;-69
2022/08/26 10:15:25;;;;;;;;;;;21.50;85.00;;;;;;5059019;28;20018;-68
2022/08/26 10:17:50;;;;;;;;;;;21.20;86.50;;;;;;5055975;28;19913;-67
2022/08/26 10:20:18;;;;;;;;;;;21.20;87.40;;;;;;5054598;28;20397;-69
2022/08/26 10:23:03;;;;;;;;;;;21.30;86.70;;;;;;5050300;28;19912;-69
2022/08/26 10:25:47;;;;;;;;;;;21.20;84.60;;;;;;5056707;28;20337;-69
2022/08/26 10:28:51;;;;;;;;;;;21.30;84.90;;;;;;5057983;28;20316;-68
2022/08/26 10:31:25;;;;;;;;;;;21.50;84.30;;;;;;4994575;28;19917;-67
2022/08/26 10:33:50;;;;;;;;;;;21.60;84.00;;;;;;4995911;28;20048;-68
2022/08/26 10:39:06;;;;;;;;;;;21.60;83.10;;;;;;5054508;28;19927;-68
2022/08/26 10:41:35;;;;;;;;;;;21.70;82.40;;;;;;5053167;28;20437;-68
2022/08/26 10:44:01;;;;;;;;;;;21.90;81.80;;;;;;5054669;28;19973;-68
2022/08/26 10:46:34;;;;;;;;;;;21.90;81.00;;;;;;5055245;28;19917;-68
2022/08/26 10:49:08;;;;;;;;;;;21.80;84.40;;;;;;5056003;28;19958;-68
2022/08/26 10:51:40;;;;;;;;;;;21.90;81.50;;;;;;5056003;28;19932;-67
2022/08/26 10:54:06;;;;;;;;;;;22.00;81.20;;;;;;5054982;28;19912;-68
2022/08/26 10:56:55;;;;;;;;;;;22.40;79.90;;;;;;5061532;28;19923;-68
2022/08/26 10:59:32;;;;;;;;;;;22.70;77.80;;;;;;5047973;28;20022;-68
2022/08/26 11:01:58;;;;;;;;;;;22.50;76.70;;;;;;5056704;28;19938;-68
2022/08/26 11:04:27;;;;;;;;;;;22.60;76.50;;;;;;5057542;28;19916;-69
2022/08/26 11:07:11;;;;;;;;;;;22.90;75.70;;;;;;5058269;28;19975;-67
2022/08/26 11:09:45;;;;;;;;;;;23.10;74.50;;;;;;5058274;28;19940;-69
2022/08/26 11:12:44;;;;;;;;;;;23.10;74.20;;;;;;5054841;28;19917;-69
2022/08/26 11:15:19;;;;;;;;;;;23.20;74.40;;;;;;5061347;28;19917;-68
2022/08/26 11:17:44;;;;;;;;;;;23.00;74.40;;;;;;5061900;28;19923;-68
2022/08/26 11:20:22;;;;;;;;;;;22.90;74.60;;;;;;5054650;28;19920;-68
2022/08/26 11:22:48;;;;;;;;;;;23.10;73.40;;;;;;5059191;28;19917;-70
2022/08/26 11:25:15;;;;;;;;;;;23.00;74.00;;;;;;5059425;28;19927;-69
2022/08/26 11:27:40;;;;;;;;;;;23.10;73.90;;;;;;5061092;28;20016;-69
2022/08/26 11:30:12;;;;;;;;;;;23.20;73.70;;;;;;5060553;28;20358;-70
2022/08/26 11:32:40;;;;;;;;;;;23.20;73.30;;;;;;5053005;28;20471;-69
2022/08/26 11:35:07;;;;;;;;;;;23.00;74.30;;;;;;5055772;28;19920;-68
2022/08/26 11:37:36;;;;;;;;;;;22.90;75.10;;;;;;5059349;28;19921;-69
2022/08/26 11:40:05;;;;;;;;;;;23.00;74.60;;;;;;5053021;28;19912;-68
2022/08/26 11:42:40;;;;;;;;;;;23.40;74.40;;;;;;5055393;28;20749;-67
2022/08/26 11:45:15;;;;;;;;;;;23.80;72.20;;;;;;5054534;28;19921;-67
2022/08/26 11:47:41;;;;;;;;;;;23.80;71.80;;;;;;5055346;28;19912;-68
2022/08/26 11:50:08;;;;;;;;;;;23.70;71.50;;;;;;5049530;28;19920;-66
2022/08/26 11:52:34;;;;;;;;;;;23.30;72.10;;;;;;5053086;28;20010;-67
2022/08/26 11:55:01;;;;;;;;;;;23.20;73.70;;;;;;5057965;28;20451;-68
2022/08/26 11:57:27;;;;;;;;;;;23.10;74.10;;;;;;5056860;28;20023;-67
2022/08/26 11:59:53;;;;;;;;;;;23.00;75.30;;;;;;5070488;28;19956;-68
2022/08/26 12:02:19;;;;;;;;;;;23.10;74.60;;;;;;5057873;28;20511;-68
2022/08/26 12:04:47;;;;;;;;;;;23.50;72.80;;;;;;5057148;28;19921;-67
2022/08/26 12:07:20;;;;;;;;;;;23.90;71.10;;;;;;5056369;28;19921;-66
2022/08/26 12:09:50;;;;;;;;;;;24.00;70.20;;;;;;5058882;28;19928;-66
2022/08/26 12:12:20;;;;;;;;;;;24.10;70.20;;;;;;5053960;28;22054;-67
2022/08/26 12:14:46;;;;;;;;;;;24.10;70.30;;;;;;5049535;28;20351;-66
2022/08/26 12:17:13;;;;;;;;;;;24.20;69.60;;;;;;5060687;28;19939;-67
2022/08/26 12:19:39;;;;;;;;;;;23.90;70.50;;;;;;5056870;28;19948;-67
2022/08/26 12:22:14;;;;;;;;;;;23.70;71.20;;;;;;5062204;28;19970;-66
2022/08/26 12:24:47;;;;;;;;;;;23.60;72.60;;;;;;5055001;28;19916;-66
2022/08/26 12:27:16;;;;;;;;;;;23.60;71.60;;;;;;5052213;28;20011;-67
2022/08/26 12:29:42;;;;;;;;;;;23.60;72.00;;;;;;5059962;28;19942;-68
2022/08/26 12:32:12;;;;;;;;;;;23.70;71.60;;;;;;5058386;28;20368;-66
2022/08/26 12:34:41;;;;;;;;;;;23.50;72.30;;;;;;5058635;28;20001;-70
2022/08/26 12:37:08;;;;;;;;;;;23.40;72.80;;;;;;5056904;28;20536;-67
2022/08/26 12:39:35;;;;;;;;;;;23.60;72.30;;;;;;5059891;28;20322;-68
2022/08/26 12:42:02;;;;;;;;;;;23.40;74.10;;;;;;5057801;28;19928;-67
2022/08/26 12:44:48;;;;;;;;;;;23.60;73.70;;;;;;5062998;28;20011;-66
2022/08/26 12:47:24;;;;;;;;;;;23.40;74.00;;;;;;5075592;28;19912;-68
2022/08/26 12:50:01;;;;;;;;;;;23.50;74.10;;;;;;5062042;28;19912;-68
2022/08/26 12:52:28;;;;;;;;;;;23.70;74.00;;;;;;5060693;28;20179;-68
2022/08/26 12:55:01;;;;;;;;;;;23.70;73.90;;;;;;5083926;28;19952;-66
2022/08/26 12:57:29;;;;;;;;;;;23.80;73.00;;;;;;5057078;28;19959;-68
2022/08/26 13:00:13;;;;;;;;;;;23.20;75.20;;;;;;5063527;28;20251;-68
2022/08/26 13:02:39;;;;;;;;;;;23.20;77.30;;;;;;5061700;28;19940;-70
2022/08/26 13:05:04;;;;;;;;;;;22.80;80.60;;;;;;5060890;28;19951;-69
2022/08/26 13:07:30;;;;;;;;;;;22.60;83.30;;;;;;5065455;28;19920;-70
2022/08/26 13:09:56;;;;;;;;;;;22.40;85.30;;;;;;5061704;28;19919;-69
2022/08/26 13:12:33;;;;;;;;;;;22.50;85.40;;;;;;5063365;28;19974;-69
2022/08/26 13:15:00;;;;;;;;;;;22.80;85.00;;;;;;5056002;28;20320;-68
2022/08/26 13:17:26;;;;;;;;;;;23.00;81.90;;;;;;5053216;28;20128;-68
2022/08/26 13:19:52;;;;;;;;;;;23.10;82.30;;;;;;5056808;28;19919;-69
2022/08/26 13:22:21;;;;;;;;;;;22.90;82.80;;;;;;5059533;28;20361;-68
2022/08/26 13:24:47;;;;;;;;;;;23.10;82.70;;;;;;5056405;28;19991;-69
2022/08/26 13:27:13;;;;;;;;;;;22.90;83.70;;;;;;5057259;28;19916;-69
2022/08/26 13:29:40;;;;;;;;;;;23.00;84.20;;;;;;5063233;28;20247;-69
2022/08/26 13:32:06;;;;;;;;;;;23.10;82.30;;;;;;5062548;28;19920;-71
2022/08/26 13:34:32;;;;;;;;;;;23.00;83.30;;;;;;5046835;28;19913;-69
2022/08/26 13:36:58;;;;;;;;;;;23.20;81.50;;;;;;5065002;28;21344;-68
2022/08/26 13:39:24;;;;;;;;;;;23.30;80.20;;;;;;5058591;28;20371;-68
2022/08/26 13:41:50;;;;;;;;;;;23.40;80.00;;;;;;5057270;28;19919;-70
2022/08/26 13:44:16;;;;;;;;;;;23.40;78.80;;;;;;5059767;28;20327;-69
2022/08/26 13:46:41;;;;;;;;;;;23.60;78.20;;;;;;5060418;28;19921;-69
2022/08/26 13:49:07;;;;;;;;;;;23.90;77.70;;;;;;5064659;28;20016;-68
2022/08/26 13:51:33;;;;;;;;;;;23.80;77.80;;;;;;5056082;28;19921;-68
2022/08/26 13:53:59;;;;;;;;;;;23.60;77.80;;;;;;5057502;28;20407;-68
2022/08/26 13:56:26;;;;;;;;;;;23.40;79.80;;;;;;5058718;28;19917;-69
2022/08/26 13:58:52;;;;;;;;;;;23.20;80.40;;;;;;5062079;28;20328;-68
2022/08/26 14:01:18;;;;;;;;;;;23.00;81.80;;;;;;5064588;28;19913;-69
2022/08/26 14:03:44;;;;;;;;;;;22.80;83.70;;;;;;5066915;28;19913;-67
2022/08/26 14:06:10;;;;;;;;;;;22.80;84.70;;;;;;5063557;28;20370;-67
2022/08/26 14:08:37;;;;;;;;;;;22.70;85.60;;;;;;5064789;28;20422;-67
2022/08/26 14:11:02;;;;;;;;;;;22.80;85.80;;;;;;5064557;28;19927;-67
2022/08/26 14:13:28;;;;;;;;;;;22.70;85.90;;;;;;5068630;28;20367;-67
2022/08/26 14:15:55;;;;;;;;;;;22.90;85.50;;;;;;5060536;28;19977;-68
2022/08/26 14:18:25;;;;;;;;;;;22.70;86.00;;;;;;5065488;28;19924;-69
2022/08/26 14:20:53;;;;;;;;;;;22.70;86.20;;;;;;5055622;28;19912;-67
2022/08/26 14:23:18;;;;;;;;;;;22.90;86.40;;;;;;5061844;28;19923;-68
2022/08/26 14:25:44;;;;;;;;;;;23.00;85.50;;;;;;5060730;28;19916;-68
2022/08/26 14:28:10;;;;;;;;;;;23.20;84.40;;;;;;5058721;28;19917;-68
2022/08/26 14:30:38;;;;;;;;;;;23.20;83.70;;;;;;5053877;28;19916;-67
2022/08/26 14:33:04;;;;;;;;;;;23.20;82.60;;;;;;5060082;28;19928;-69